• Join FlightAware (Why Join?)
  • Login
  • US Flag 
11:16PM EDT


 

Airport Tracker/Info


-or-


 

Live Flight TrackerFlight Track Log ✈ CTL16 ✈ 24-Apr-2013 ✈ KHAO - KBKL

Flight Track Log - Related Links

Times and Time Zones

All times are in EDT time to prevent confusion due to time zone crossing. See the CTL16 flight status page for this flight to view local times or setup timezone preferences in your user account.

Time Position Orientation Groundspeed Altitude Reporting Facility
EDT Latitude Longitude Course Direction KTS MPH feet Rate Location/Type
08:33PM 39.3833 -84.5333 38° Northeast 140 161 1,700  Level Cincinnati TRACON
08:34PM 39.4167 -84.5000 38° Northeast 154 177 2,400 720 Climbing Cincinnati TRACON
08:34PM 39.4183 -84.4808 84° East 156 180 2,700 600 Climbing Indianapolis Center
08:35PM 39.4350 -84.4567 48° Northeast 158 182 3,000 540 Climbing Indianapolis Center
08:35PM 39.4425 -84.4408 58° Northeast 167 192 3,200 480 Climbing Indianapolis Center
08:36PM 39.4650 -84.4086 48° Northeast 167 192 3,500 540 Climbing Indianapolis Center
08:36PM 39.4758 -84.3911 51° Northeast 175 201 3,800 540 Climbing Indianapolis Center
08:37PM 39.4958 -84.3592 51° Northeast 171 197 4,100 480 Climbing Indianapolis Center
08:37PM 39.5072 -84.3414 50° Northeast 179 206 4,300 540 Climbing Indianapolis Center
08:38PM 39.5289 -84.3083 50° Northeast 177 204 4,700 420 Climbing Indianapolis Center
08:39PM 39.5611 -84.2597 49° Northeast 177 204 5,100 420 Climbing Indianapolis Center
08:40PM 39.5931 -84.2106 50° Northeast 177 204 5,600 480 Climbing Indianapolis Center
08:41PM 39.6253 -84.1614 50° Northeast 177 204 6,100 480 Climbing Indianapolis Center
08:42PM 39.6603 -84.1042 52° Northeast 177 204 6,600 360 Climbing Indianapolis Center
08:43PM 39.6914 -84.0539 51° Northeast 180 207 6,900 120 Climbing Indianapolis Center
08:44PM 39.7242 -84.0067 48° Northeast 178 205 6,900  Level Indianapolis Center
08:45PM 39.7608 -83.9569 46° Northeast 179 206 6,900  Level Indianapolis Center
08:46PM 39.7906 -83.9094 51° Northeast 181 208 6,900  Level Indianapolis Center
08:47PM 39.8281 -83.8572 47° Northeast 181 208 6,900  Level Indianapolis Center
08:48PM 39.8636 -83.8122 44° Northeast 179 206 7,000  Climbing Indianapolis Center
08:49PM 39.9011 -83.7692 41° Northeast 177 204 7,000  Level Indianapolis Center
08:50PM 39.9361 -83.7294 41° Northeast 179 206 7,000  Level Indianapolis Center
08:51PM 39.9728 -83.6850 43° Northeast 179 206 7,000 -60 Level Indianapolis Center
08:52PM 40.0144 -83.6331 44° Northeast 179 206 6,900  Descending Indianapolis Center
08:53PM 40.0511 -83.5886 43° Northeast 176 203 7,000  Climbing Indianapolis Center
08:54PM 40.0833 -83.5489 43° Northeast 181 208 7,000  Level Indianapolis Center
08:55PM 40.1200 -83.5044 43° Northeast 180 207 7,000  Level Indianapolis Center
08:56PM 40.1589 -83.4600 41° Northeast 178 205 7,000  Level Indianapolis Center
08:57PM 40.1908 -83.4231 41° Northeast 176 203 7,000 -120 Level Indianapolis Center
08:57PM 40.1975 -83.4150 43° Northeast 176 203 6,900  Descending Indianapolis Center
08:58PM 40.2275 -83.3783 43° Northeast 179 206 7,000  Climbing Indianapolis Center
08:58PM 40.2342 -83.3697 45° Northeast 178 205 6,900 60 Descending Indianapolis Center
08:59PM 40.2700 -83.3242 44° Northeast 178 205 7,100 60 Climbing Indianapolis Center
09:00PM 40.3047 -83.2772 46° Northeast 178 205 7,100 -60 Level Indianapolis Center
09:01PM 40.3475 -83.2244 43° Northeast 179 206 7,000 -60 Descending Indianapolis Center
09:02PM 40.3844 -83.1797 43° Northeast 180 207 7,000  Level Indianapolis Center
09:03PM 40.4211 -83.1342 43° Northeast 180 207 7,100  Climbing Indianapolis Center
09:04PM 40.4575 -83.0889 43° Northeast 179 206 7,100  Level Indianapolis Center
09:05PM 40.4928 -83.0447 44° Northeast 175 201 7,100  Level Indianapolis Center
09:06PM 40.5283 -83.0028 42° Northeast 180 207 7,100  Level Indianapolis Center
09:07PM 40.5636 -82.9558 45° Northeast 179 206 7,100  Level Indianapolis Center
09:08PM 40.5997 -82.9058 46° Northeast 185 213 7,100  Level Indianapolis Center
09:09PM 40.6333 -82.8575 47° Northeast 180 207 7,100  Level Indianapolis Center
09:10PM 40.6706 -82.8117 43° Northeast 181 208 7,100  Level Indianapolis Center
09:12PM 40.7122 -82.7536 47° Northeast 185 213 7,100  Level Indianapolis Center
09:13PM 40.7458 -82.7056 47° Northeast 179 206 7,100  Level Indianapolis Center
09:14PM 40.7808 -82.6569 46° Northeast 180 207 7,100  Level Indianapolis Center
09:14PM 40.8033 -82.6350 36° Northeast 182 209 7,100  Level Cleveland Center